sensor_id;sensor_type;location;lat;lon;timestamp;P1;durP1;ratioP1;P2;durP2;ratioP2
9716;SDS011;4897;43.570;27.832;2022-12-18T00:02:18;7.68;;;5.60;;
9716;SDS011;4897;43.570;27.832;2022-12-18T00:04:45;8.20;;;5.82;;
9716;SDS011;4897;43.570;27.832;2022-12-18T00:07:12;9.55;;;5.70;;
9716;SDS011;4897;43.570;27.832;2022-12-18T00:09:38;7.47;;;5.38;;
9716;SDS011;4897;43.570;27.832;2022-12-18T00:12:07;8.75;;;5.03;;
9716;SDS011;4897;43.570;27.832;2022-12-18T00:14:34;8.85;;;5.45;;
9716;SDS011;4897;43.570;27.832;2022-12-18T00:17:01;10.75;;;5.72;;
9716;SDS011;4897;43.570;27.832;2022-12-18T00:19:28;7.30;;;5.30;;
9716;SDS011;4897;43.570;27.832;2022-12-18T00:21:55;7.70;;;5.45;;
9716;SDS011;4897;43.570;27.832;2022-12-18T00:24:23;10.35;;;5.53;;
9716;SDS011;4897;43.570;27.832;2022-12-18T00:26:50;6.65;;;4.88;;
9716;SDS011;4897;43.570;27.832;2022-12-18T00:29:18;7.38;;;4.82;;
9716;SDS011;4897;43.570;27.832;2022-12-18T00:31:45;7.47;;;5.03;;
9716;SDS011;4897;43.570;27.832;2022-12-18T00:34:12;7.85;;;4.93;;
9716;SDS011;4897;43.570;27.832;2022-12-18T00:36:39;6.25;;;4.72;;
9716;SDS011;4897;43.570;27.832;2022-12-18T00:39:07;7.43;;;4.90;;
9716;SDS011;4897;43.570;27.832;2022-12-18T00:41:34;6.65;;;4.70;;
9716;SDS011;4897;43.570;27.832;2022-12-18T00:44:20;6.05;;;4.10;;
9716;SDS011;4897;43.570;27.832;2022-12-18T00:46:46;6.53;;;4.40;;
9716;SDS011;4897;43.570;27.832;2022-12-18T00:49:14;7.15;;;4.32;;
9716;SDS011;4897;43.570;27.832;2022-12-18T00:51:42;5.40;;;4.00;;
9716;SDS011;4897;43.570;27.832;2022-12-18T00:54:09;6.47;;;4.32;;
9716;SDS011;4897;43.570;27.832;2022-12-18T00:56:36;6.05;;;3.78;;
9716;SDS011;4897;43.570;27.832;2022-12-18T00:59:03;4.82;;;4.05;;
9716;SDS011;4897;43.570;27.832;2022-12-18T01:01:32;6.35;;;4.45;;
9716;SDS011;4897;43.570;27.832;2022-12-18T01:03:59;6.80;;;4.50;;
9716;SDS011;4897;43.570;27.832;2022-12-18T01:06:27;5.57;;;4.13;;
9716;SDS011;4897;43.570;27.832;2022-12-18T01:08:54;8.05;;;4.40;;
9716;SDS011;4897;43.570;27.832;2022-12-18T01:11:21;6.55;;;4.57;;
9716;SDS011;4897;43.570;27.832;2022-12-18T01:13:48;5.63;;;4.10;;
9716;SDS011;4897;43.570;27.832;2022-12-18T01:16:16;7.57;;;4.03;;
9716;SDS011;4897;43.570;27.832;2022-12-18T01:18:44;6.72;;;3.97;;
9716;SDS011;4897;43.570;27.832;2022-12-18T01:21:12;4.90;;;3.92;;
9716;SDS011;4897;43.570;27.832;2022-12-18T01:23:40;5.65;;;3.75;;
9716;SDS011;4897;43.570;27.832;2022-12-18T01:26:08;5.45;;;3.80;;
9716;SDS011;4897;43.570;27.832;2022-12-18T01:28:36;5.85;;;3.80;;
9716;SDS011;4897;43.570;27.832;2022-12-18T01:31:12;6.07;;;3.83;;
9716;SDS011;4897;43.570;27.832;2022-12-18T01:33:41;5.03;;;3.53;;
9716;SDS011;4897;43.570;27.832;2022-12-18T01:36:13;5.60;;;3.58;;
9716;SDS011;4897;43.570;27.832;2022-12-18T01:38:45;5.47;;;3.85;;
9716;SDS011;4897;43.570;27.832;2022-12-18T01:41:12;4.65;;;3.30;;
9716;SDS011;4897;43.570;27.832;2022-12-18T01:43:43;4.63;;;3.40;;
9716;SDS011;4897;43.570;27.832;2022-12-18T01:46:15;5.70;;;3.50;;
9716;SDS011;4897;43.570;27.832;2022-12-18T01:48:43;5.80;;;3.78;;
9716;SDS011;4897;43.570;27.832;2022-12-18T01:51:14;5.00;;;3.47;;
9716;SDS011;4897;43.570;27.832;2022-12-18T01:53:41;5.53;;;4.00;;
9716;SDS011;4897;43.570;27.832;2022-12-18T01:56:12;5.00;;;4.07;;
9716;SDS011;4897;43.570;27.832;2022-12-18T01:58:43;5.40;;;3.83;;
9716;SDS011;4897;43.570;27.832;2022-12-18T02:01:17;6.72;;;4.10;;
9716;SDS011;4897;43.570;27.832;2022-12-18T02:03:44;6.28;;;4.35;;
9716;SDS011;4897;43.570;27.832;2022-12-18T02:06:15;7.50;;;4.57;;
9716;SDS011;4897;43.570;27.832;2022-12-18T02:08:48;6.43;;;4.70;;
9716;SDS011;4897;43.570;27.832;2022-12-18T02:11:24;6.35;;;4.60;;
9716;SDS011;4897;43.570;27.832;2022-12-18T02:14:04;6.93;;;4.70;;
9716;SDS011;4897;43.570;27.832;2022-12-18T02:16:39;9.45;;;4.93;;
9716;SDS011;4897;43.570;27.832;2022-12-18T02:19:13;10.40;;;5.18;;
9716;SDS011;4897;43.570;27.832;2022-12-18T02:21:54;7.03;;;5.22;;
9716;SDS011;4897;43.570;27.832;2022-12-18T02:24:34;6.68;;;4.90;;
9716;SDS011;4897;43.570;27.832;2022-12-18T02:27:07;6.10;;;4.65;;
9716;SDS011;4897;43.570;27.832;2022-12-18T02:29:37;6.05;;;4.20;;
9716;SDS011;4897;43.570;27.832;2022-12-18T02:32:08;7.50;;;4.75;;
9716;SDS011;4897;43.570;27.832;2022-12-18T02:34:40;6.30;;;4.43;;
9716;SDS011;4897;43.570;27.832;2022-12-18T02:37:10;7.00;;;4.40;;
9716;SDS011;4897;43.570;27.832;2022-12-18T02:39:40;5.88;;;4.55;;
9716;SDS011;4897;43.570;27.832;2022-12-18T02:42:11;5.50;;;4.00;;
9716;SDS011;4897;43.570;27.832;2022-12-18T02:44:41;6.75;;;4.45;;
9716;SDS011;4897;43.570;27.832;2022-12-18T02:47:09;6.85;;;4.18;;
9716;SDS011;4897;43.570;27.832;2022-12-18T02:49:40;5.85;;;4.43;;
9716;SDS011;4897;43.570;27.832;2022-12-18T02:52:16;7.07;;;4.65;;
9716;SDS011;4897;43.570;27.832;2022-12-18T02:54:54;7.60;;;4.82;;
9716;SDS011;4897;43.570;27.832;2022-12-18T02:57:30;7.75;;;4.05;;
9716;SDS011;4897;43.570;27.832;2022-12-18T03:00:02;7.35;;;4.20;;
9716;SDS011;4897;43.570;27.832;2022-12-18T03:02:34;6.72;;;4.85;;
9716;SDS011;4897;43.570;27.832;2022-12-18T03:05:08;7.47;;;4.60;;
9716;SDS011;4897;43.570;27.832;2022-12-18T03:07:40;8.65;;;4.47;;
9716;SDS011;4897;43.570;27.832;2022-12-18T03:10:12;5.78;;;4.13;;
9716;SDS011;4897;43.570;27.832;2022-12-18T03:12:44;6.97;;;4.55;;
9716;SDS011;4897;43.570;27.832;2022-12-18T03:15:14;4.10;;;2.97;;
9716;SDS011;4897;43.570;27.832;2022-12-18T03:17:46;8.30;;;4.47;;
9716;SDS011;4897;43.570;27.832;2022-12-18T03:20:19;10.57;;;5.32;;
9716;SDS011;4897;43.570;27.832;2022-12-18T03:22:49;7.00;;;4.75;;
9716;SDS011;4897;43.570;27.832;2022-12-18T03:25:19;6.28;;;4.60;;
9716;SDS011;4897;43.570;27.832;2022-12-18T03:27:49;8.43;;;4.90;;
9716;SDS011;4897;43.570;27.832;2022-12-18T03:30:22;9.52;;;5.60;;
9716;SDS011;4897;43.570;27.832;2022-12-18T03:32:51;7.32;;;5.22;;
9716;SDS011;4897;43.570;27.832;2022-12-18T03:35:24;7.70;;;5.20;;
9716;SDS011;4897;43.570;27.832;2022-12-18T03:37:55;7.93;;;5.07;;
9716;SDS011;4897;43.570;27.832;2022-12-18T03:40:23;7.97;;;5.22;;
9716;SDS011;4897;43.570;27.832;2022-12-18T03:42:58;7.57;;;5.47;;
9716;SDS011;4897;43.570;27.832;2022-12-18T03:45:31;6.47;;;4.85;;
9716;SDS011;4897;43.570;27.832;2022-12-18T03:48:03;10.00;;;5.50;;
9716;SDS011;4897;43.570;27.832;2022-12-18T03:50:37;7.57;;;5.43;;
9716;SDS011;4897;43.570;27.832;2022-12-18T03:53:15;8.85;;;5.40;;
9716;SDS011;4897;43.570;27.832;2022-12-18T03:55:50;7.43;;;5.30;;
9716;SDS011;4897;43.570;27.832;2022-12-18T03:58:20;8.50;;;5.60;;
9716;SDS011;4897;43.570;27.832;2022-12-18T04:00:51;8.82;;;5.15;;
9716;SDS011;4897;43.570;27.832;2022-12-18T04:03:22;7.35;;;5.00;;
9716;SDS011;4897;43.570;27.832;2022-12-18T04:05:52;7.93;;;4.97;;
9716;SDS011;4897;43.570;27.832;2022-12-18T04:08:20;7.95;;;5.28;;
9716;SDS011;4897;43.570;27.832;2022-12-18T04:10:48;10.60;;;6.30;;
9716;SDS011;4897;43.570;27.832;2022-12-18T04:13:22;10.00;;;6.00;;
9716;SDS011;4897;43.570;27.832;2022-12-18T04:15:50;10.35;;;5.80;;
9716;SDS011;4897;43.570;27.832;2022-12-18T04:18:17;11.40;;;6.47;;
9716;SDS011;4897;43.570;27.832;2022-12-18T04:20:44;11.20;;;6.03;;
9716;SDS011;4897;43.570;27.832;2022-12-18T04:23:11;9.25;;;5.75;;
9716;SDS011;4897;43.570;27.832;2022-12-18T04:25:38;9.70;;;5.80;;
9716;SDS011;4897;43.570;27.832;2022-12-18T04:28:04;11.65;;;6.78;;
9716;SDS011;4897;43.570;27.832;2022-12-18T04:30:33;14.27;;;6.68;;
9716;SDS011;4897;43.570;27.832;2022-12-18T04:33:00;10.55;;;6.63;;
9716;SDS011;4897;43.570;27.832;2022-12-18T04:35:26;11.70;;;7.15;;
9716;SDS011;4897;43.570;27.832;2022-12-18T04:37:53;13.25;;;7.53;;
9716;SDS011;4897;43.570;27.832;2022-12-18T04:40:20;17.08;;;8.23;;
9716;SDS011;4897;43.570;27.832;2022-12-18T04:42:47;11.27;;;7.05;;
9716;SDS011;4897;43.570;27.832;2022-12-18T04:45:14;13.00;;;7.20;;
9716;SDS011;4897;43.570;27.832;2022-12-18T04:47:42;12.45;;;6.93;;
9716;SDS011;4897;43.570;27.832;2022-12-18T04:50:09;16.98;;;8.48;;
9716;SDS011;4897;43.570;27.832;2022-12-18T04:52:36;12.77;;;7.97;;
9716;SDS011;4897;43.570;27.832;2022-12-18T04:55:03;13.27;;;7.75;;
9716;SDS011;4897;43.570;27.832;2022-12-18T04:57:30;17.77;;;9.38;;
9716;SDS011;4897;43.570;27.832;2022-12-18T04:59:57;14.50;;;7.88;;
9716;SDS011;4897;43.570;27.832;2022-12-18T05:02:23;13.98;;;6.93;;
9716;SDS011;4897;43.570;27.832;2022-12-18T05:04:52;14.55;;;7.93;;
9716;SDS011;4897;43.570;27.832;2022-12-18T05:07:18;14.40;;;7.90;;
9716;SDS011;4897;43.570;27.832;2022-12-18T05:09:45;15.05;;;8.25;;
9716;SDS011;4897;43.570;27.832;2022-12-18T05:12:12;11.65;;;7.95;;
9716;SDS011;4897;43.570;27.832;2022-12-18T05:14:39;15.38;;;8.82;;
9716;SDS011;4897;43.570;27.832;2022-12-18T05:17:06;15.90;;;9.15;;
9716;SDS011;4897;43.570;27.832;2022-12-18T05:19:33;19.17;;;10.75;;
9716;SDS011;4897;43.570;27.832;2022-12-18T05:22:01;15.95;;;9.32;;
9716;SDS011;4897;43.570;27.832;2022-12-18T05:24:28;21.45;;;10.75;;
9716;SDS011;4897;43.570;27.832;2022-12-18T05:26:55;15.57;;;8.43;;
9716;SDS011;4897;43.570;27.832;2022-12-18T05:29:22;22.77;;;11.63;;
9716;SDS011;4897;43.570;27.832;2022-12-18T05:31:49;20.60;;;11.43;;
9716;SDS011;4897;43.570;27.832;2022-12-18T05:34:16;18.27;;;10.32;;
9716;SDS011;4897;43.570;27.832;2022-12-18T05:36:43;21.50;;;11.07;;
9716;SDS011;4897;43.570;27.832;2022-12-18T05:39:11;19.45;;;10.00;;
9716;SDS011;4897;43.570;27.832;2022-12-18T05:41:38;18.10;;;10.45;;
9716;SDS011;4897;43.570;27.832;2022-12-18T05:44:05;20.25;;;11.07;;
9716;SDS011;4897;43.570;27.832;2022-12-18T05:46:32;19.95;;;11.63;;
9716;SDS011;4897;43.570;27.832;2022-12-18T05:48:59;23.45;;;13.23;;
9716;SDS011;4897;43.570;27.832;2022-12-18T05:51:26;22.98;;;13.05;;
9716;SDS011;4897;43.570;27.832;2022-12-18T05:53:53;26.00;;;10.57;;
9716;SDS011;4897;43.570;27.832;2022-12-18T05:56:22;21.85;;;11.90;;
9716;SDS011;4897;43.570;27.832;2022-12-18T05:58:51;24.80;;;14.57;;
9716;SDS011;4897;43.570;27.832;2022-12-18T06:01:19;26.42;;;14.43;;
9716;SDS011;4897;43.570;27.832;2022-12-18T06:03:47;20.83;;;10.73;;
9716;SDS011;4897;43.570;27.832;2022-12-18T06:06:15;30.02;;;16.08;;
9716;SDS011;4897;43.570;27.832;2022-12-18T06:08:43;27.48;;;15.45;;
9716;SDS011;4897;43.570;27.832;2022-12-18T06:11:10;27.55;;;13.60;;
9716;SDS011;4897;43.570;27.832;2022-12-18T06:13:38;26.35;;;14.38;;
9716;SDS011;4897;43.570;27.832;2022-12-18T06:16:05;26.35;;;15.23;;
9716;SDS011;4897;43.570;27.832;2022-12-18T06:18:33;26.48;;;14.60;;
9716;SDS011;4897;43.570;27.832;2022-12-18T06:21:00;30.00;;;15.20;;
9716;SDS011;4897;43.570;27.832;2022-12-18T06:23:27;28.33;;;15.35;;
9716;SDS011;4897;43.570;27.832;2022-12-18T06:25:54;32.45;;;16.58;;
9716;SDS011;4897;43.570;27.832;2022-12-18T06:28:21;30.15;;;15.82;;
9716;SDS011;4897;43.570;27.832;2022-12-18T06:30:49;28.45;;;14.95;;
9716;SDS011;4897;43.570;27.832;2022-12-18T06:33:16;27.67;;;16.42;;
9716;SDS011;4897;43.570;27.832;2022-12-18T06:35:43;30.27;;;16.05;;
9716;SDS011;4897;43.570;27.832;2022-12-18T06:38:10;29.48;;;14.63;;
9716;SDS011;4897;43.570;27.832;2022-12-18T06:40:37;23.45;;;13.15;;
9716;SDS011;4897;43.570;27.832;2022-12-18T06:43:05;30.60;;;15.95;;
9716;SDS011;4897;43.570;27.832;2022-12-18T06:45:33;27.90;;;14.13;;
9716;SDS011;4897;43.570;27.832;2022-12-18T06:48:01;30.80;;;15.45;;
9716;SDS011;4897;43.570;27.832;2022-12-18T06:50:28;28.27;;;14.82;;
9716;SDS011;4897;43.570;27.832;2022-12-18T06:52:55;25.27;;;14.95;;
9716;SDS011;4897;43.570;27.832;2022-12-18T06:55:22;28.20;;;14.65;;
9716;SDS011;4897;43.570;27.832;2022-12-18T06:57:48;32.70;;;15.80;;
9716;SDS011;4897;43.570;27.832;2022-12-18T07:00:15;29.73;;;15.20;;
9716;SDS011;4897;43.570;27.832;2022-12-18T07:02:43;26.83;;;14.18;;
9716;SDS011;4897;43.570;27.832;2022-12-18T07:05:11;31.67;;;15.57;;
9716;SDS011;4897;43.570;27.832;2022-12-18T07:07:38;31.23;;;15.70;;
9716;SDS011;4897;43.570;27.832;2022-12-18T07:10:05;31.27;;;16.23;;
9716;SDS011;4897;43.570;27.832;2022-12-18T07:12:32;29.00;;;15.82;;
9716;SDS011;4897;43.570;27.832;2022-12-18T07:14:59;29.55;;;16.25;;
9716;SDS011;4897;43.570;27.832;2022-12-18T07:17:25;30.23;;;15.95;;
9716;SDS011;4897;43.570;27.832;2022-12-18T07:19:52;25.67;;;14.07;;
9716;SDS011;4897;43.570;27.832;2022-12-18T07:22:20;31.23;;;17.15;;
9716;SDS011;4897;43.570;27.832;2022-12-18T07:24:48;28.63;;;15.07;;
9716;SDS011;4897;43.570;27.832;2022-12-18T07:27:15;29.67;;;15.32;;
9716;SDS011;4897;43.570;27.832;2022-12-18T07:29:41;31.60;;;15.52;;
9716;SDS011;4897;43.570;27.832;2022-12-18T07:32:08;26.00;;;15.35;;
9716;SDS011;4897;43.570;27.832;2022-12-18T07:34:35;30.10;;;15.93;;
9716;SDS011;4897;43.570;27.832;2022-12-18T07:37:02;25.67;;;14.25;;
9716;SDS011;4897;43.570;27.832;2022-12-18T07:39:31;33.25;;;15.90;;
9716;SDS011;4897;43.570;27.832;2022-12-18T07:41:57;29.40;;;15.50;;
9716;SDS011;4897;43.570;27.832;2022-12-18T07:44:42;34.13;;;16.77;;
9716;SDS011;4897;43.570;27.832;2022-12-18T07:47:09;32.10;;;16.60;;
9716;SDS011;4897;43.570;27.832;2022-12-18T07:49:36;32.70;;;16.42;;
9716;SDS011;4897;43.570;27.832;2022-12-18T07:52:02;28.25;;;14.35;;
9716;SDS011;4897;43.570;27.832;2022-12-18T07:54:31;26.83;;;14.98;;
9716;SDS011;4897;43.570;27.832;2022-12-18T07:56:58;26.42;;;15.65;;
9716;SDS011;4897;43.570;27.832;2022-12-18T07:59:25;34.38;;;16.35;;
9716;SDS011;4897;43.570;27.832;2022-12-18T08:01:52;30.02;;;16.15;;
9716;SDS011;4897;43.570;27.832;2022-12-18T08:04:19;26.95;;;15.07;;
9716;SDS011;4897;43.570;27.832;2022-12-18T08:06:46;34.50;;;16.60;;
9716;SDS011;4897;43.570;27.832;2022-12-18T08:09:13;33.35;;;17.58;;
9716;SDS011;4897;43.570;27.832;2022-12-18T08:11:41;31.15;;;16.38;;
9716;SDS011;4897;43.570;27.832;2022-12-18T08:14:08;33.95;;;17.27;;
9716;SDS011;4897;43.570;27.832;2022-12-18T08:16:36;26.73;;;15.38;;
9716;SDS011;4897;43.570;27.832;2022-12-18T08:19:03;29.30;;;14.90;;
9716;SDS011;4897;43.570;27.832;2022-12-18T08:21:30;37.22;;;17.90;;
9716;SDS011;4897;43.570;27.832;2022-12-18T08:23:59;32.00;;;16.83;;
9716;SDS011;4897;43.570;27.832;2022-12-18T08:26:27;36.63;;;18.02;;
9716;SDS011;4897;43.570;27.832;2022-12-18T08:28:58;46.45;;;25.40;;
9716;SDS011;4897;43.570;27.832;2022-12-18T08:31:25;28.60;;;16.98;;
9716;SDS011;4897;43.570;27.832;2022-12-18T08:33:54;34.55;;;16.58;;
9716;SDS011;4897;43.570;27.832;2022-12-18T08:36:22;29.90;;;16.48;;
9716;SDS011;4897;43.570;27.832;2022-12-18T08:38:49;25.65;;;14.27;;
9716;SDS011;4897;43.570;27.832;2022-12-18T08:41:17;30.80;;;16.40;;
9716;SDS011;4897;43.570;27.832;2022-12-18T08:43:44;26.30;;;15.00;;
9716;SDS011;4897;43.570;27.832;2022-12-18T08:46:32;24.30;;;15.15;;
9716;SDS011;4897;43.570;27.832;2022-12-18T08:49:01;29.63;;;15.75;;
9716;SDS011;4897;43.570;27.832;2022-12-18T08:51:29;29.02;;;17.33;;
9716;SDS011;4897;43.570;27.832;2022-12-18T08:53:56;30.27;;;16.25;;
9716;SDS011;4897;43.570;27.832;2022-12-18T08:56:22;33.25;;;16.20;;
9716;SDS011;4897;43.570;27.832;2022-12-18T08:58:51;27.75;;;15.52;;
9716;SDS011;4897;43.570;27.832;2022-12-18T09:01:18;34.20;;;17.83;;
9716;SDS011;4897;43.570;27.832;2022-12-18T09:03:47;25.25;;;15.70;;
9716;SDS011;4897;43.570;27.832;2022-12-18T09:06:14;30.25;;;17.42;;
9716;SDS011;4897;43.570;27.832;2022-12-18T09:08:41;27.20;;;16.30;;
9716;SDS011;4897;43.570;27.832;2022-12-18T09:11:11;25.80;;;16.15;;
9716;SDS011;4897;43.570;27.832;2022-12-18T09:13:40;34.70;;;17.10;;
9716;SDS011;4897;43.570;27.832;2022-12-18T09:16:07;32.40;;;17.48;;
9716;SDS011;4897;43.570;27.832;2022-12-18T09:18:34;30.73;;;17.25;;
9716;SDS011;4897;43.570;27.832;2022-12-18T09:21:08;27.88;;;16.88;;
9716;SDS011;4897;43.570;27.832;2022-12-18T09:23:36;28.83;;;16.13;;
9716;SDS011;4897;43.570;27.832;2022-12-18T09:26:03;37.20;;;18.80;;
9716;SDS011;4897;43.570;27.832;2022-12-18T09:28:30;35.22;;;19.25;;
9716;SDS011;4897;43.570;27.832;2022-12-18T09:30:57;36.17;;;18.25;;
9716;SDS011;4897;43.570;27.832;2022-12-18T09:33:24;38.65;;;19.85;;
9716;SDS011;4897;43.570;27.832;2022-12-18T09:35:51;38.55;;;19.58;;
9716;SDS011;4897;43.570;27.832;2022-12-18T09:38:19;29.95;;;17.63;;
9716;SDS011;4897;43.570;27.832;2022-12-18T09:40:48;38.88;;;19.13;;
9716;SDS011;4897;43.570;27.832;2022-12-18T09:43:18;32.40;;;17.75;;
9716;SDS011;4897;43.570;27.832;2022-12-18T09:45:49;33.90;;;18.58;;
9716;SDS011;4897;43.570;27.832;2022-12-18T09:48:20;29.50;;;16.65;;
9716;SDS011;4897;43.570;27.832;2022-12-18T09:50:51;37.17;;;19.15;;
9716;SDS011;4897;43.570;27.832;2022-12-18T09:53:26;35.65;;;18.15;;
9716;SDS011;4897;43.570;27.832;2022-12-18T09:55:58;34.00;;;16.95;;
9716;SDS011;4897;43.570;27.832;2022-12-18T09:58:28;35.83;;;18.50;;
9716;SDS011;4897;43.570;27.832;2022-12-18T10:00:59;42.00;;;19.92;;
9716;SDS011;4897;43.570;27.832;2022-12-18T10:03:26;33.90;;;19.27;;
9716;SDS011;4897;43.570;27.832;2022-12-18T10:05:56;33.70;;;17.88;;
9716;SDS011;4897;43.570;27.832;2022-12-18T10:08:32;35.05;;;17.88;;
9716;SDS011;4897;43.570;27.832;2022-12-18T10:11:10;35.65;;;17.30;;
9716;SDS011;4897;43.570;27.832;2022-12-18T10:13:58;38.58;;;17.27;;
9716;SDS011;4897;43.570;27.832;2022-12-18T10:16:32;32.50;;;17.45;;
9716;SDS011;4897;43.570;27.832;2022-12-18T10:19:12;34.03;;;17.73;;
9716;SDS011;4897;43.570;27.832;2022-12-18T10:21:51;33.58;;;18.55;;
9716;SDS011;4897;43.570;27.832;2022-12-18T10:24:31;36.90;;;18.75;;
9716;SDS011;4897;43.570;27.832;2022-12-18T10:27:09;35.35;;;18.92;;
9716;SDS011;4897;43.570;27.832;2022-12-18T10:29:41;34.28;;;17.60;;
9716;SDS011;4897;43.570;27.832;2022-12-18T10:32:09;35.42;;;19.17;;
9716;SDS011;4897;43.570;27.832;2022-12-18T10:34:44;33.38;;;18.98;;
9716;SDS011;4897;43.570;27.832;2022-12-18T10:37:12;32.13;;;17.40;;
9716;SDS011;4897;43.570;27.832;2022-12-18T10:39:44;31.63;;;17.70;;
9716;SDS011;4897;43.570;27.832;2022-12-18T10:42:15;35.40;;;18.77;;
9716;SDS011;4897;43.570;27.832;2022-12-18T10:44:44;31.58;;;17.25;;
9716;SDS011;4897;43.570;27.832;2022-12-18T10:47:12;34.42;;;18.60;;
9716;SDS011;4897;43.570;27.832;2022-12-18T10:49:42;32.00;;;17.45;;
9716;SDS011;4897;43.570;27.832;2022-12-18T10:52:17;37.92;;;17.67;;
9716;SDS011;4897;43.570;27.832;2022-12-18T10:54:50;31.05;;;15.43;;
9716;SDS011;4897;43.570;27.832;2022-12-18T10:57:33;32.67;;;16.70;;
9716;SDS011;4897;43.570;27.832;2022-12-18T11:00:19;31.95;;;16.25;;
9716;SDS011;4897;43.570;27.832;2022-12-18T11:02:49;31.00;;;16.75;;
9716;SDS011;4897;43.570;27.832;2022-12-18T11:05:23;26.75;;;15.25;;
9716;SDS011;4897;43.570;27.832;2022-12-18T11:07:52;27.88;;;15.65;;
9716;SDS011;4897;43.570;27.832;2022-12-18T11:10:25;25.83;;;14.50;;
9716;SDS011;4897;43.570;27.832;2022-12-18T11:12:55;25.88;;;14.15;;
9716;SDS011;4897;43.570;27.832;2022-12-18T11:15:23;26.52;;;14.38;;
9716;SDS011;4897;43.570;27.832;2022-12-18T11:17:54;27.42;;;14.93;;
9716;SDS011;4897;43.570;27.832;2022-12-18T11:20:25;24.92;;;14.38;;
9716;SDS011;4897;43.570;27.832;2022-12-18T11:22:58;31.73;;;16.30;;
9716;SDS011;4897;43.570;27.832;2022-12-18T11:25:28;30.83;;;16.65;;
9716;SDS011;4897;43.570;27.832;2022-12-18T11:27:56;25.85;;;14.35;;
9716;SDS011;4897;43.570;27.832;2022-12-18T11:30:26;27.33;;;14.32;;
9716;SDS011;4897;43.570;27.832;2022-12-18T11:32:56;25.98;;;13.73;;
9716;SDS011;4897;43.570;27.832;2022-12-18T11:38:17;16.58;;;10.88;;
9716;SDS011;4897;43.570;27.832;2022-12-18T11:40:51;23.65;;;12.02;;
9716;SDS011;4897;43.570;27.832;2022-12-18T11:43:25;17.38;;;9.95;;
9716;SDS011;4897;43.570;27.832;2022-12-18T11:45:55;9.93;;;6.93;;
9716;SDS011;4897;43.570;27.832;2022-12-18T11:48:32;12.88;;;8.60;;
9716;SDS011;4897;43.570;27.832;2022-12-18T11:51:03;14.23;;;10.10;;
9716;SDS011;4897;43.570;27.832;2022-12-18T11:53:35;26.48;;;12.48;;
9716;SDS011;4897;43.570;27.832;2022-12-18T11:56:11;27.25;;;14.63;;
9716;SDS011;4897;43.570;27.832;2022-12-18T11:58:55;17.65;;;9.68;;
9716;SDS011;4897;43.570;27.832;2022-12-18T12:01:33;13.55;;;8.73;;
9716;SDS011;4897;43.570;27.832;2022-12-18T12:04:18;14.40;;;9.15;;
9716;SDS011;4897;43.570;27.832;2022-12-18T12:07:11;17.17;;;10.57;;
9716;SDS011;4897;43.570;27.832;2022-12-18T12:09:49;11.07;;;7.25;;
9716;SDS011;4897;43.570;27.832;2022-12-18T12:12:28;12.88;;;7.72;;
9716;SDS011;4897;43.570;27.832;2022-12-18T12:15:13;14.38;;;8.68;;
9716;SDS011;4897;43.570;27.832;2022-12-18T12:17:49;10.05;;;6.63;;
9716;SDS011;4897;43.570;27.832;2022-12-18T12:20:21;13.48;;;7.18;;
9716;SDS011;4897;43.570;27.832;2022-12-18T12:22:54;9.15;;;6.55;;
9716;SDS011;4897;43.570;27.832;2022-12-18T12:25:29;9.82;;;5.90;;
9716;SDS011;4897;43.570;27.832;2022-12-18T12:28:06;11.82;;;8.20;;
9716;SDS011;4897;43.570;27.832;2022-12-18T12:30:43;19.92;;;11.60;;
9716;SDS011;4897;43.570;27.832;2022-12-18T12:33:24;18.70;;;9.98;;
9716;SDS011;4897;43.570;27.832;2022-12-18T12:36:01;15.10;;;9.60;;
9716;SDS011;4897;43.570;27.832;2022-12-18T12:38:36;16.10;;;10.40;;
9716;SDS011;4897;43.570;27.832;2022-12-18T12:41:12;12.57;;;8.77;;
9716;SDS011;4897;43.570;27.832;2022-12-18T12:43:57;23.38;;;11.85;;
9716;SDS011;4897;43.570;27.832;2022-12-18T12:46:26;18.05;;;11.15;;
9716;SDS011;4897;43.570;27.832;2022-12-18T12:48:58;29.90;;;16.25;;
9716;SDS011;4897;43.570;27.832;2022-12-18T12:51:30;18.25;;;10.88;;
9716;SDS011;4897;43.570;27.832;2022-12-18T12:54:01;15.18;;;9.55;;
9716;SDS011;4897;43.570;27.832;2022-12-18T12:56:36;11.88;;;7.82;;
9716;SDS011;4897;43.570;27.832;2022-12-18T12:59:19;18.38;;;12.52;;
9716;SDS011;4897;43.570;27.832;2022-12-18T13:01:54;22.80;;;13.73;;
9716;SDS011;4897;43.570;27.832;2022-12-18T13:04:27;20.25;;;12.80;;
9716;SDS011;4897;43.570;27.832;2022-12-18T13:07:03;24.80;;;15.35;;
9716;SDS011;4897;43.570;27.832;2022-12-18T13:10:12;23.25;;;11.95;;
9716;SDS011;4897;43.570;27.832;2022-12-18T13:12:56;16.13;;;9.98;;
9716;SDS011;4897;43.570;27.832;2022-12-18T13:15:25;18.77;;;11.45;;
9716;SDS011;4897;43.570;27.832;2022-12-18T13:18:15;22.13;;;11.40;;
9716;SDS011;4897;43.570;27.832;2022-12-18T13:20:46;14.73;;;9.65;;
9716;SDS011;4897;43.570;27.832;2022-12-18T13:23:19;25.58;;;12.55;;
9716;SDS011;4897;43.570;27.832;2022-12-18T13:25:57;15.30;;;8.57;;
9716;SDS011;4897;43.570;27.832;2022-12-18T13:34:33;14.95;;;10.10;;
9716;SDS011;4897;43.570;27.832;2022-12-18T13:43:23;20.40;;;11.23;;
9716;SDS011;4897;43.570;27.832;2022-12-18T13:46:06;15.40;;;10.10;;
9716;SDS011;4897;43.570;27.832;2022-12-18T13:48:49;15.90;;;9.38;;
9716;SDS011;4897;43.570;27.832;2022-12-18T13:51:19;18.95;;;11.18;;
9716;SDS011;4897;43.570;27.832;2022-12-18T13:53:48;18.98;;;11.23;;
9716;SDS011;4897;43.570;27.832;2022-12-18T13:56:17;18.52;;;12.05;;
9716;SDS011;4897;43.570;27.832;2022-12-18T13:58:44;12.35;;;8.68;;
9716;SDS011;4897;43.570;27.832;2022-12-18T14:01:25;10.98;;;7.63;;
9716;SDS011;4897;43.570;27.832;2022-12-18T14:03:55;9.70;;;6.35;;
9716;SDS011;4897;43.570;27.832;2022-12-18T14:06:35;11.02;;;8.25;;
9716;SDS011;4897;43.570;27.832;2022-12-18T14:09:02;15.82;;;9.07;;
9716;SDS011;4897;43.570;27.832;2022-12-18T14:11:29;18.75;;;11.55;;
9716;SDS011;4897;43.570;27.832;2022-12-18T14:13:56;20.17;;;11.18;;
9716;SDS011;4897;43.570;27.832;2022-12-18T14:16:25;15.77;;;9.75;;
9716;SDS011;4897;43.570;27.832;2022-12-18T14:18:52;10.80;;;7.85;;
9716;SDS011;4897;43.570;27.832;2022-12-18T14:21:22;13.40;;;8.68;;
9716;SDS011;4897;43.570;27.832;2022-12-18T14:24:02;19.60;;;11.57;;
9716;SDS011;4897;43.570;27.832;2022-12-18T14:26:32;14.48;;;8.43;;
9716;SDS011;4897;43.570;27.832;2022-12-18T14:29:00;14.30;;;8.77;;
9716;SDS011;4897;43.570;27.832;2022-12-18T14:31:45;13.00;;;8.95;;
9716;SDS011;4897;43.570;27.832;2022-12-18T14:34:14;12.80;;;8.43;;
9716;SDS011;4897;43.570;27.832;2022-12-18T14:36:44;17.63;;;8.88;;
9716;SDS011;4897;43.570;27.832;2022-12-18T14:39:18;14.85;;;9.02;;
9716;SDS011;4897;43.570;27.832;2022-12-18T14:41:45;16.95;;;9.45;;
9716;SDS011;4897;43.570;27.832;2022-12-18T14:44:15;13.95;;;9.75;;
9716;SDS011;4897;43.570;27.832;2022-12-18T14:46:42;19.20;;;10.65;;
9716;SDS011;4897;43.570;27.832;2022-12-18T14:49:18;16.67;;;9.63;;
9716;SDS011;4897;43.570;27.832;2022-12-18T14:51:48;13.93;;;8.80;;
9716;SDS011;4897;43.570;27.832;2022-12-18T14:54:17;15.57;;;9.45;;
9716;SDS011;4897;43.570;27.832;2022-12-18T14:56:45;13.05;;;9.25;;
9716;SDS011;4897;43.570;27.832;2022-12-18T14:59:14;21.92;;;10.40;;
9716;SDS011;4897;43.570;27.832;2022-12-18T15:01:46;18.08;;;9.63;;
9716;SDS011;4897;43.570;27.832;2022-12-18T15:04:23;16.80;;;9.70;;
9716;SDS011;4897;43.570;27.832;2022-12-18T15:07:02;14.27;;;9.25;;
9716;SDS011;4897;43.570;27.832;2022-12-18T15:09:31;14.60;;;9.63;;
9716;SDS011;4897;43.570;27.832;2022-12-18T15:11:58;18.92;;;10.73;;
9716;SDS011;4897;43.570;27.832;2022-12-18T15:14:33;18.48;;;9.60;;
9716;SDS011;4897;43.570;27.832;2022-12-18T15:17:03;18.88;;;10.30;;
9716;SDS011;4897;43.570;27.832;2022-12-18T15:19:34;17.10;;;9.85;;
9716;SDS011;4897;43.570;27.832;2022-12-18T15:22:04;14.73;;;9.93;;